createdAt,value
2023-03-29T00:00:52.279Z,90.14
2023-03-29T00:01:52.336Z,89.31
2023-03-29T00:02:52.350Z,89.15
2023-03-29T00:03:52.316Z,89.21
2023-03-29T00:04:52.233Z,89.73
2023-03-29T00:05:52.223Z,90.04
2023-03-29T00:06:52.229Z,89.42
2023-03-29T00:07:52.213Z,89.73
2023-03-29T00:08:52.192Z,89.94
2023-03-29T00:09:52.177Z,89.11
2023-03-29T00:10:52.174Z,89.62
2023-03-29T00:11:52.161Z,90.04
2023-03-29T00:12:52.169Z,89.83
2023-03-29T00:13:52.136Z,89.42
2023-03-29T00:14:52.125Z,89.21
2023-03-29T00:15:52.122Z,89.42
2023-03-29T00:16:52.196Z,89.52
2023-03-29T00:17:52.125Z,89.98
2023-03-29T00:18:52.090Z,89.83
2023-03-29T00:19:52.072Z,89.42
2023-03-29T00:20:52.068Z,89.94
2023-03-29T00:21:52.047Z,89.31
2023-03-29T00:22:52.056Z,89.73
2023-03-29T00:23:52.035Z,89.98
2023-03-29T00:24:52.020Z,90.19
2023-03-29T00:25:52.006Z,90.70
2023-03-29T00:26:51.999Z,90.70
2023-03-29T00:27:51.995Z,90.70
2023-03-29T00:28:51.978Z,90.70
2023-03-29T00:29:51.968Z,90.91
2023-03-29T00:30:51.955Z,89.98
2023-03-29T00:31:52.086Z,90.29
2023-03-29T00:32:52.012Z,90.29
2023-03-29T00:33:51.924Z,90.29
2023-03-29T00:34:51.921Z,89.94
2023-03-29T00:35:51.915Z,90.77
2023-03-29T00:36:51.893Z,90.19
2023-03-29T00:37:51.886Z,89.98
2023-03-29T00:38:51.876Z,89.62
2023-03-29T00:39:51.862Z,90.04
2023-03-29T00:40:51.846Z,90.08
2023-03-29T00:41:51.842Z,90.14
2023-03-29T00:42:51.843Z,89.52
2023-03-29T00:43:51.818Z,90.35
2023-03-29T00:44:51.805Z,90.29
2023-03-29T00:45:51.794Z,90.08
2023-03-29T00:46:51.831Z,89.42
2023-03-29T00:47:51.804Z,89.46
2023-03-29T00:48:51.770Z,90.35
2023-03-29T00:49:51.752Z,90.66
2023-03-29T00:50:51.757Z,90.45
2023-03-29T00:51:51.733Z,90.25
2023-03-29T00:52:51.744Z,90.81
2023-03-29T00:53:51.709Z,90.19
2023-03-29T00:54:51.703Z,91.22
2023-03-29T00:55:51.693Z,90.66
2023-03-29T00:56:51.717Z,91.60
2023-03-29T00:57:51.678Z,91.39
2023-03-29T00:58:51.661Z,91.60
2023-03-29T00:59:51.645Z,91.49
2023-03-29T01:00:51.646Z,91.60
2023-03-29T01:01:51.654Z,90.56
2023-03-29T01:02:51.744Z,90.45
2023-03-29T01:03:51.684Z,90.66
2023-03-29T01:04:51.603Z,90.35
2023-03-29T01:05:52.733Z,90.56
2023-03-29T01:06:52.725Z,90.81
2023-03-29T01:07:52.721Z,91.53
2023-03-29T01:08:52.686Z,90.70
2023-03-29T01:09:52.668Z,90.60
2023-03-29T01:10:52.666Z,90.44
2023-03-29T01:11:52.650Z,91.47
2023-03-29T01:12:52.684Z,91.47
2023-03-29T01:13:52.629Z,91.99
2023-03-29T01:14:52.619Z,91.68
2023-03-29T01:15:52.613Z,92.30
2023-03-29T01:16:52.652Z,92.30
2023-03-29T01:17:52.658Z,92.10
2023-03-29T01:18:52.585Z,92.72
2023-03-29T01:19:52.573Z,92.51
2023-03-29T01:20:52.577Z,91.47
2023-03-29T01:21:52.564Z,91.58
2023-03-29T01:22:52.583Z,91.37
2023-03-29T01:23:52.550Z,92.10
2023-03-29T01:24:52.575Z,91.89
2023-03-29T01:25:52.519Z,91.68
2023-03-29T01:26:52.505Z,91.78
2023-03-29T01:27:52.515Z,91.58
2023-03-29T01:28:52.489Z,91.58
2023-03-29T01:29:52.477Z,90.85
2023-03-29T01:30:52.479Z,91.58
2023-03-29T01:31:52.511Z,91.58
2023-03-29T01:32:52.510Z,91.58
2023-03-29T01:33:52.446Z,91.68
2023-03-29T01:34:52.420Z,91.16
2023-03-29T01:35:52.483Z,91.43
2023-03-29T01:36:52.416Z,91.64
2023-03-29T01:37:52.409Z,89.77
2023-03-29T01:38:52.391Z,89.98
2023-03-29T01:39:52.414Z,90.02
2023-03-29T01:40:52.394Z,90.60
2023-03-29T01:41:52.376Z,90.70
2023-03-29T01:42:52.348Z,90.19
2023-03-29T01:43:52.342Z,90.60
2023-03-29T01:44:52.322Z,90.25
2023-03-29T01:45:52.336Z,90.39
2023-03-29T01:46:52.307Z,90.81
2023-03-29T01:47:52.305Z,90.35
2023-03-29T01:48:52.301Z,90.77
2023-03-29T01:49:52.278Z,90.08
2023-03-29T01:50:52.261Z,89.83
2023-03-29T01:51:52.298Z,89.62
2023-03-29T01:52:52.245Z,90.39
2023-03-29T01:53:52.247Z,90.04
2023-03-29T01:54:52.214Z,89.73
2023-03-29T01:55:52.206Z,89.73
2023-03-29T01:56:52.237Z,90.35
2023-03-29T01:57:52.190Z,89.73
2023-03-29T01:58:52.193Z,89.94
2023-03-29T01:59:52.165Z,89.62
2023-03-29T02:00:52.159Z,89.94
2023-03-29T02:01:52.244Z,89.62
2023-03-29T02:02:52.241Z,89.52
2023-03-29T02:03:52.136Z,90.14
2023-03-29T02:04:52.117Z,89.31
2023-03-29T02:05:52.108Z,89.94
2023-03-29T02:06:52.102Z,90.14
2023-03-29T02:07:52.086Z,89.42
2023-03-29T02:08:52.097Z,89.42
2023-03-29T02:09:52.076Z,89.73
2023-03-29T02:10:52.053Z,89.52
2023-03-29T02:11:52.053Z,89.83
2023-03-29T02:12:52.050Z,89.94
2023-03-29T02:13:52.041Z,89.73
2023-03-29T02:14:52.022Z,89.94
2023-03-29T02:15:52.047Z,89.62
2023-03-29T02:16:51.991Z,89.73
2023-03-29T02:17:52.003Z,89.73
2023-03-29T02:18:51.989Z,91.08
2023-03-29T02:19:51.976Z,92.63
2023-03-29T02:20:51.950Z,93.15
2023-03-29T02:21:51.946Z,92.94
2023-03-29T02:22:51.949Z,93.04
2023-03-29T02:23:51.935Z,92.11
2023-03-29T02:24:51.918Z,91.18
2023-03-29T02:25:51.907Z,91.60
2023-03-29T02:26:51.893Z,91.60
2023-03-29T02:27:51.902Z,90.87
2023-03-29T02:28:51.895Z,91.60
2023-03-29T02:29:51.861Z,91.49
2023-03-29T02:30:51.880Z,93.04
2023-03-29T02:31:51.860Z,92.94
2023-03-29T02:32:51.867Z,92.63
2023-03-29T02:33:51.842Z,92.43
2023-03-29T02:34:51.816Z,92.94
2023-03-29T02:35:51.827Z,92.43
2023-03-29T02:36:51.796Z,92.43
2023-03-29T02:37:51.800Z,92.36
2023-03-29T02:38:51.788Z,91.70
2023-03-29T02:39:51.758Z,91.49
2023-03-29T02:40:51.753Z,90.87
2023-03-29T02:41:51.742Z,90.45
2023-03-29T02:42:51.722Z,90.14
2023-03-29T02:43:51.731Z,90.25
2023-03-29T02:44:51.714Z,90.45
2023-03-29T02:45:51.711Z,90.77
2023-03-29T02:46:51.716Z,91.08
2023-03-29T02:47:51.793Z,91.60
2023-03-29T02:48:51.678Z,91.49
2023-03-29T02:49:51.659Z,91.60
2023-03-29T02:50:51.660Z,91.60
2023-03-29T02:51:51.652Z,91.08
2023-03-29T02:52:51.633Z,90.56
2023-03-29T02:53:51.639Z,90.66
2023-03-29T02:54:51.608Z,90.66
2023-03-29T02:55:51.600Z,90.77
2023-03-29T02:56:51.608Z,90.56
2023-03-29T02:57:51.585Z,90.04
2023-03-29T02:58:51.595Z,89.73
2023-03-29T02:59:51.557Z,90.04
2023-03-29T03:00:51.558Z,90.25
2023-03-29T03:01:51.583Z,91.18
2023-03-29T03:02:51.587Z,90.56
2023-03-29T03:03:51.589Z,91.08
2023-03-29T03:04:51.520Z,90.70
2023-03-29T03:05:51.502Z,90.35
2023-03-29T03:06:51.486Z,90.77
2023-03-29T03:07:51.487Z,90.25
2023-03-29T03:08:51.476Z,90.77
2023-03-29T03:09:51.482Z,90.66
2023-03-29T03:10:51.449Z,90.66
2023-03-29T03:11:51.442Z,91.12
2023-03-29T03:12:51.443Z,91.64
2023-03-29T03:13:51.424Z,91.60
2023-03-29T03:14:51.426Z,91.49
2023-03-29T03:15:51.455Z,91.60
2023-03-29T03:16:51.392Z,90.91
2023-03-29T03:17:51.396Z,90.45
2023-03-29T03:18:51.387Z,91.49
2023-03-29T03:19:51.373Z,91.49
2023-03-29T03:20:51.352Z,91.60
2023-03-29T03:21:51.344Z,91.60
2023-03-29T03:22:51.333Z,90.70
2023-03-29T03:23:51.314Z,90.39
2023-03-29T03:24:51.324Z,90.35
2023-03-29T03:25:51.305Z,91.08
2023-03-29T03:26:51.287Z,92.22
2023-03-29T03:27:51.277Z,92.53
2023-03-29T03:28:51.272Z,92.32
2023-03-29T03:29:51.265Z,91.80
2023-03-29T03:30:51.258Z,92.22
2023-03-29T03:31:53.808Z,92.01
2023-03-29T03:32:51.281Z,92.01
2023-03-29T03:33:51.225Z,91.70
2023-03-29T03:34:51.217Z,92.11
2023-03-29T03:35:51.221Z,91.60
2023-03-29T03:36:51.187Z,92.01
2023-03-29T03:37:51.189Z,92.01
2023-03-29T03:38:51.165Z,91.80
2023-03-29T03:39:51.163Z,91.64
2023-03-29T03:40:51.160Z,91.39
2023-03-29T03:41:51.134Z,91.60
2023-03-29T03:42:51.131Z,91.74
2023-03-29T03:43:51.116Z,92.05
2023-03-29T03:44:51.125Z,92.53
2023-03-29T03:45:51.179Z,92.74
2023-03-29T03:46:51.093Z,92.94
2023-03-29T03:47:51.087Z,92.94
2023-03-29T03:48:51.073Z,93.25
2023-03-29T03:49:51.076Z,93.56
2023-03-29T03:50:51.052Z,94.23
2023-03-29T03:51:52.257Z,93.50
2023-03-29T03:52:52.035Z,94.39
2023-03-29T03:53:51.022Z,93.91
2023-03-29T03:54:51.014Z,94.12
2023-03-29T03:55:50.992Z,94.64
2023-03-29T03:56:51.102Z,94.54
2023-03-29T03:57:50.973Z,94.43
2023-03-29T03:58:50.970Z,95.06
2023-03-29T03:59:50.971Z,95.06
2023-03-29T04:00:50.957Z,95.26
2023-03-29T04:01:50.936Z,95.16
2023-03-29T04:02:51.013Z,94.85
2023-03-29T04:03:50.985Z,94.33
2023-03-29T04:04:50.920Z,94.12
2023-03-29T04:05:50.890Z,93.87
2023-03-29T04:06:50.903Z,94.18
2023-03-29T04:07:50.879Z,93.87
2023-03-29T04:08:50.877Z,93.04
2023-03-29T04:09:50.867Z,92.94
2023-03-29T04:10:50.841Z,92.74
2023-03-29T04:11:50.834Z,92.84
2023-03-29T04:12:50.817Z,92.26
2023-03-29T04:13:50.814Z,92.05
2023-03-29T04:14:50.815Z,92.16
2023-03-29T04:15:50.835Z,91.39
2023-03-29T04:16:50.784Z,91.80
2023-03-29T04:17:50.885Z,91.60
2023-03-29T04:18:50.838Z,91.49
2023-03-29T04:19:50.762Z,91.70
2023-03-29T04:20:50.752Z,92.22
2023-03-29T04:21:50.732Z,92.01
2023-03-29T04:22:50.725Z,92.11
2023-03-29T04:23:50.715Z,92.01
2023-03-29T04:24:50.717Z,91.91
2023-03-29T04:25:50.710Z,92.11
2023-03-29T04:26:50.682Z,92.43
2023-03-29T04:27:50.676Z,93.19
2023-03-29T04:28:50.665Z,94.18
2023-03-29T04:29:50.674Z,94.91
2023-03-29T04:30:50.651Z,94.81
2023-03-29T04:31:51.659Z,95.37
2023-03-29T04:32:50.663Z,95.16
2023-03-29T04:33:50.611Z,94.54
2023-03-29T04:34:50.620Z,95.12
2023-03-29T04:35:50.701Z,95.12
2023-03-29T04:36:50.592Z,95.06
2023-03-29T04:37:50.585Z,95.06
2023-03-29T04:38:50.576Z,95.06
2023-03-29T04:39:50.579Z,95.06
2023-03-29T04:40:50.548Z,95.37
2023-03-29T04:41:50.541Z,95.06
2023-03-29T04:42:50.525Z,94.54
2023-03-29T04:43:50.526Z,95.01
2023-03-29T04:44:50.573Z,94.95
2023-03-29T04:45:50.506Z,95.01
2023-03-29T04:46:50.530Z,94.60
2023-03-29T04:47:50.495Z,93.87
2023-03-29T04:48:50.480Z,93.77
2023-03-29T04:49:50.453Z,94.02
2023-03-29T04:50:50.458Z,94.08
2023-03-29T04:51:50.435Z,93.87
2023-03-29T04:52:50.443Z,94.91
2023-03-29T04:53:50.460Z,94.91
2023-03-29T04:54:50.406Z,94.60
2023-03-29T04:55:50.410Z,94.60
2023-03-29T04:56:50.401Z,94.08
2023-03-29T04:57:50.381Z,93.91
2023-03-29T04:58:50.371Z,94.02
2023-03-29T04:59:50.363Z,93.98
2023-03-29T05:00:50.365Z,94.08
2023-03-29T05:01:50.377Z,93.46
2023-03-29T05:02:50.351Z,93.66
2023-03-29T05:03:50.366Z,93.56
2023-03-29T05:04:50.319Z,93.66
2023-03-29T05:05:50.318Z,93.77
2023-03-29T05:06:50.295Z,93.77
2023-03-29T05:07:50.281Z,93.77
2023-03-29T05:08:50.284Z,93.46
2023-03-29T05:09:50.261Z,93.46
2023-03-29T05:10:50.246Z,94.39
2023-03-29T05:11:50.225Z,93.77
2023-03-29T05:12:50.218Z,93.87
2023-03-29T05:13:50.215Z,92.94
2023-03-29T05:14:50.199Z,93.04
2023-03-29T05:15:50.250Z,93.04
2023-03-29T05:16:50.198Z,94.08
2023-03-29T05:17:50.202Z,94.60
2023-03-29T05:18:50.182Z,94.39
2023-03-29T05:19:50.156Z,94.60
2023-03-29T05:20:50.180Z,95.07
2023-03-29T05:21:50.159Z,95.32
2023-03-29T05:22:50.122Z,94.81
2023-03-29T05:23:50.145Z,95.32
2023-03-29T05:24:50.109Z,95.12
2023-03-29T05:25:50.131Z,95.01
2023-03-29T05:26:50.099Z,95.32
2023-03-29T05:27:50.095Z,94.81
2023-03-29T05:28:50.093Z,95.12
2023-03-29T05:29:50.071Z,94.91
2023-03-29T05:30:50.056Z,94.87
2023-03-29T05:31:50.157Z,94.66
2023-03-29T05:32:50.083Z,94.87
2023-03-29T05:33:50.057Z,94.81
2023-03-29T05:34:50.066Z,94.81
2023-03-29T05:35:50.048Z,94.60
2023-03-29T05:36:50.015Z,94.81
2023-03-29T05:37:50.025Z,94.91
2023-03-29T05:38:50.063Z,94.70
2023-03-29T05:39:49.986Z,95.01
2023-03-29T05:40:50.003Z,95.12
2023-03-29T05:41:49.939Z,94.91
2023-03-29T05:42:49.940Z,94.97
2023-03-29T05:43:49.929Z,94.97
2023-03-29T05:44:51.092Z,95.07
2023-03-29T05:45:49.912Z,94.66
2023-03-29T05:46:49.896Z,94.62
2023-03-29T05:47:49.917Z,95.07
2023-03-29T05:48:49.856Z,94.82
2023-03-29T05:49:49.878Z,95.03
2023-03-29T05:50:49.869Z,94.51
2023-03-29T05:51:49.847Z,94.93
2023-03-29T05:52:49.815Z,95.40
2023-03-29T05:53:49.816Z,95.24
2023-03-29T05:54:49.807Z,94.62
2023-03-29T05:55:49.799Z,95.14
2023-03-29T05:56:49.830Z,94.68
2023-03-29T05:57:49.783Z,94.98
2023-03-29T05:58:49.765Z,94.57
2023-03-29T06:01:15.820Z,94.98
2023-03-29T06:02:15.922Z,95.61
2023-03-29T06:03:21.510Z,95.24
2023-03-29T06:04:16.835Z,95.19
2023-03-29T06:05:15.762Z,94.89
2023-03-29T06:06:15.769Z,94.90
2023-03-29T06:07:15.745Z,93.87
2023-03-29T06:08:15.744Z,93.66
2023-03-29T06:09:15.726Z,93.35
2023-03-29T06:10:15.716Z,92.93
2023-03-29T06:11:15.702Z,94.18
2023-03-29T06:12:15.693Z,94.07
2023-03-29T06:13:15.692Z,94.23
2023-03-29T06:14:15.671Z,93.30
2023-03-29T06:15:15.653Z,92.72
2023-03-29T06:16:15.676Z,92.17
2023-03-29T06:17:15.680Z,92.38
2023-03-29T06:18:15.625Z,92.54
2023-03-29T06:19:15.624Z,91.88
2023-03-29T06:20:15.607Z,91.56
2023-03-29T06:21:15.602Z,91.26
2023-03-29T06:22:15.610Z,90.91
2023-03-29T06:23:15.601Z,90.28
2023-03-29T06:24:15.581Z,90.28
2023-03-29T06:25:15.651Z,89.62
2023-03-29T06:26:15.563Z,89.38
2023-03-29T06:27:15.533Z,88.86
2023-03-29T06:28:15.526Z,87.27
2023-03-29T06:29:15.510Z,86.24
2023-03-29T06:30:15.547Z,86.35
2023-03-29T06:31:15.512Z,83.56
2023-03-29T06:32:15.483Z,83.71
2023-03-29T06:33:15.500Z,85.97
2023-03-29T06:34:15.463Z,85.60
2023-03-29T06:35:15.463Z,84.16
2023-03-29T06:36:15.499Z,84.57
2023-03-29T06:37:15.434Z,85.09
2023-03-29T06:38:15.424Z,84.88
2023-03-29T06:39:15.413Z,85.30
2023-03-29T06:40:15.407Z,85.36
2023-03-29T06:41:15.407Z,84.84
2023-03-29T06:42:21.139Z,84.74
2023-03-29T06:43:16.368Z,84.53
2023-03-29T06:44:15.361Z,83.91
2023-03-29T06:45:15.348Z,84.01
2023-03-29T06:46:15.378Z,84.47
2023-03-29T06:47:15.332Z,84.57
2023-03-29T06:48:15.322Z,84.12
2023-03-29T06:49:15.306Z,85.15
2023-03-29T06:50:15.300Z,84.70
2023-03-29T06:51:15.297Z,84.49
2023-03-29T06:52:15.276Z,84.80
2023-03-29T06:53:15.272Z,84.77
2023-03-29T06:54:15.258Z,84.87
2023-03-29T06:55:15.253Z,84.80
2023-03-29T06:56:15.249Z,83.15
2023-03-29T06:57:15.293Z,83.53
2023-03-29T06:58:15.214Z,81.26
2023-03-29T06:59:15.205Z,80.95
2023-03-29T07:00:15.528Z,81.47
2023-03-29T07:01:15.364Z,82.50
2023-03-29T07:02:15.222Z,82.50
2023-03-29T07:03:15.182Z,82.25
2023-03-29T07:04:15.193Z,80.23
2023-03-29T07:05:15.137Z,80.54
2023-03-29T07:06:15.139Z,81.37
2023-03-29T07:07:15.112Z,82.50
2023-03-29T07:08:15.122Z,82.40
2023-03-29T07:09:16.193Z,82.46
2023-03-29T07:10:15.098Z,82.67
2023-03-29T07:11:15.102Z,82.35
2023-03-29T07:12:15.059Z,82.01
2023-03-29T07:13:15.050Z,81.49
2023-03-29T07:14:15.299Z,81.39
2023-03-29T07:15:15.035Z,81.29
2023-03-29T07:16:15.120Z,80.74
2023-03-29T07:17:15.013Z,82.07
2023-03-29T07:18:15.024Z,82.45
2023-03-29T07:19:14.987Z,82.65
2023-03-29T07:20:14.977Z,82.76
2023-03-29T07:21:14.981Z,81.01
2023-03-29T07:22:14.957Z,80.97
2023-03-29T07:23:14.948Z,80.25
2023-03-29T07:24:14.935Z,79.53
2023-03-29T07:25:14.921Z,79.63
2023-03-29T07:26:14.928Z,78.40
2023-03-29T07:27:15.899Z,79.33
2023-03-29T07:28:14.929Z,75.67
2023-03-29T07:29:14.883Z,77.24
2023-03-29T07:30:14.891Z,78.37
2023-03-29T07:31:14.868Z,79.19
2023-03-29T07:32:14.865Z,78.06
2023-03-29T07:33:14.952Z,78.75
2023-03-29T07:34:14.833Z,80.05
2023-03-29T07:35:14.831Z,80.42
2023-03-29T07:36:14.854Z,77.44
2023-03-29T07:37:14.803Z,76.82
2023-03-29T07:38:14.790Z,76.25
2023-03-29T07:39:14.772Z,76.35
2023-03-29T07:40:14.768Z,78.40
2023-03-29T07:41:14.758Z,78.47
2023-03-29T07:42:14.784Z,78.02
2023-03-29T07:43:14.756Z,78.12
2023-03-29T07:44:14.730Z,77.30
2023-03-29T07:45:14.725Z,76.86
2023-03-29T07:46:14.711Z,76.62
2023-03-29T07:47:14.697Z,72.44
2023-03-29T07:48:14.799Z,74.22
2023-03-29T07:49:14.673Z,74.63
2023-03-29T07:50:14.656Z,76.14
2023-03-29T07:51:14.642Z,77.03
2023-03-29T07:52:14.663Z,76.62
2023-03-29T07:53:14.632Z,74.98
2023-03-29T07:54:14.614Z,74.77
2023-03-29T07:55:14.609Z,74.49
2023-03-29T07:56:14.600Z,74.84
2023-03-29T07:57:14.673Z,75.56
2023-03-29T07:58:14.588Z,77.71
2023-03-29T07:59:14.556Z,78.60
2023-03-29T08:00:14.574Z,77.37
2023-03-29T08:01:17.086Z,76.41
2023-03-29T08:02:14.538Z,78.36
2023-03-29T08:03:14.630Z,76.58
2023-03-29T08:04:14.556Z,77.77
2023-03-29T08:05:15.395Z,76.44
2023-03-29T08:06:14.481Z,74.66
2023-03-29T08:07:16.438Z,74.46
2023-03-29T08:08:14.474Z,73.64
2023-03-29T08:09:14.455Z,74.36
2023-03-29T08:10:14.456Z,75.18
2023-03-29T08:11:15.212Z,71.42
2023-03-29T08:13:44.450Z,74.97
2023-03-29T08:14:40.403Z,74.97
2023-03-29T08:15:40.377Z,74.56
2023-03-29T08:16:40.392Z,71.08
2023-03-29T08:17:40.365Z,73.64
2023-03-29T08:18:40.359Z,72.44
2023-03-29T08:19:40.337Z,72.24
2023-03-29T08:20:41.335Z,73.19
2023-03-29T08:21:40.328Z,74.05
2023-03-29T08:22:40.318Z,75.15
2023-03-29T08:23:40.294Z,74.53
2023-03-29T08:24:40.286Z,75.56
2023-03-29T08:25:40.281Z,76.44
2023-03-29T08:26:40.276Z,74.66
2023-03-29T08:27:40.572Z,75.11
2023-03-29T08:36:21.238Z,73.71
2023-03-29T08:36:54.174Z,74.98
2023-03-29T08:37:54.124Z,73.81
2023-03-29T08:40:20.348Z,74.57
2023-03-29T08:41:20.061Z,75.35
2023-03-29T08:42:20.058Z,72.89
2023-03-29T08:43:20.346Z,72.58
2023-03-29T08:44:20.061Z,75.45
2023-03-29T08:45:20.013Z,76.34
2023-03-29T08:46:20.026Z,73.95
2023-03-29T08:47:19.998Z,74.26
2023-03-29T08:48:20.073Z,72.89
2023-03-29T09:16:37.233Z,73.16
2023-03-29T09:17:37.235Z,69.99
2023-03-29T09:18:37.175Z,73.13
2023-03-29T09:19:37.198Z,71.39
2023-03-29T09:20:37.162Z,72.58
2023-03-29T09:21:37.163Z,71.53
2023-03-29T09:22:37.144Z,70.37
2023-03-29T09:23:37.123Z,70.06
2023-03-29T09:24:37.111Z,68.40
2023-03-29T09:25:50.854Z,68.94
2023-03-29T09:26:38.090Z,67.68
2023-03-29T09:27:37.088Z,69.45
2023-03-29T09:28:37.068Z,71.94
2023-03-29T09:29:37.056Z,72.45
2023-03-29T09:30:37.055Z,72.11
2023-03-29T09:31:37.072Z,69.24
2023-03-29T09:32:37.094Z,70.78
2023-03-29T09:33:37.023Z,70.57
2023-03-29T09:34:37.012Z,69.42
2023-03-29T09:35:37.040Z,68.84
2023-03-29T09:36:37.003Z,68.97
2023-03-29T09:37:36.989Z,69.58
2023-03-29T09:38:36.970Z,71.29
2023-03-29T09:39:36.959Z,71.70
2023-03-29T09:40:36.946Z,72.89
2023-03-29T09:41:36.931Z,71.73
2023-03-29T09:42:36.934Z,71.19
2023-03-29T09:43:36.918Z,70.34
2023-03-29T09:44:36.899Z,68.40
2023-03-29T09:45:36.914Z,68.23
2023-03-29T09:46:36.884Z,67.30
2023-03-29T09:47:36.898Z,69.86
2023-03-29T09:48:36.865Z,68.23
2023-03-29T09:49:36.847Z,66.28
2023-03-29T09:50:36.861Z,69.28
2023-03-29T09:51:36.829Z,69.65
2023-03-29T09:52:36.842Z,69.15
2023-03-29T09:53:36.805Z,68.60
2023-03-29T09:54:36.821Z,69.49
2023-03-29T09:55:36.786Z,68.16
2023-03-29T09:56:36.780Z,68.67
2023-03-29T09:57:36.787Z,67.55
2023-03-29T09:58:36.761Z,67.99
2023-03-29T09:59:36.750Z,67.92
2023-03-29T10:00:36.740Z,68.33
2023-03-29T10:01:36.753Z,67.65
2023-03-29T10:02:36.770Z,69.21
2023-03-29T10:03:36.708Z,68.90
2023-03-29T10:04:36.812Z,68.12
2023-03-29T10:05:36.707Z,68.93
2023-03-29T10:06:36.684Z,70.16
2023-03-29T10:07:36.682Z,71.70
2023-03-29T10:08:36.661Z,69.93
2023-03-29T10:09:36.644Z,72.38
2023-03-29T10:10:36.636Z,73.47
2023-03-29T10:11:36.621Z,70.47
2023-03-29T10:12:36.626Z,71.26
2023-03-29T10:13:36.616Z,70.31
2023-03-29T10:14:36.596Z,70.68
2023-03-29T10:15:36.583Z,67.99
2023-03-29T10:16:36.601Z,66.57
2023-03-29T10:17:36.575Z,66.33
2023-03-29T10:18:36.563Z,67.35
2023-03-29T10:19:36.541Z,66.09
2023-03-29T10:20:36.573Z,66.33
2023-03-29T10:21:36.524Z,66.36
2023-03-29T10:22:36.521Z,66.49
2023-03-29T10:23:36.518Z,66.93
2023-03-29T10:24:36.496Z,68.53
2023-03-29T10:25:36.479Z,70.27
2023-03-29T10:26:36.478Z,68.19
2023-03-29T10:27:36.461Z,68.57
2023-03-29T10:28:36.482Z,68.30
2023-03-29T10:29:36.438Z,68.06
2023-03-29T10:30:36.438Z,69.69
2023-03-29T10:31:36.472Z,68.16
2023-03-29T10:32:36.454Z,68.33
2023-03-29T10:33:36.421Z,68.40
2023-03-29T10:34:36.396Z,66.27
2023-03-29T10:35:36.425Z,64.46
2023-03-29T10:36:36.375Z,65.89
2023-03-29T10:37:36.365Z,66.09
2023-03-29T10:38:36.366Z,67.18
2023-03-29T10:39:36.336Z,67.99
2023-03-29T10:40:36.379Z,67.59
2023-03-29T10:41:36.320Z,66.06
2023-03-29T10:42:36.308Z,66.27
2023-03-29T10:43:36.308Z,65.58
2023-03-29T10:44:36.290Z,67.35
2023-03-29T10:45:36.274Z,67.38
2023-03-29T10:46:36.337Z,68.19
2023-03-29T10:47:36.298Z,66.25
2023-03-29T10:48:36.260Z,67.18
2023-03-29T10:49:36.235Z,66.46
2023-03-29T10:50:36.221Z,66.05
2023-03-29T10:51:36.213Z,65.95
2023-03-29T10:52:36.206Z,68.06
2023-03-29T10:53:36.199Z,66.33
2023-03-29T10:54:36.185Z,66.22
2023-03-29T10:55:36.470Z,67.04
2023-03-29T10:56:57.178Z,67.82
2023-03-29T10:57:36.200Z,66.36
2023-03-29T10:58:36.158Z,67.49
2023-03-29T10:59:36.128Z,64.76
2023-03-29T11:00:36.118Z,66.19
2023-03-29T11:01:36.158Z,65.89
2023-03-29T11:02:36.176Z,66.33
2023-03-29T11:03:36.204Z,67.76
2023-03-29T11:04:36.293Z,67.65
2023-03-29T11:05:36.066Z,67.65
2023-03-29T11:06:36.053Z,67.32
2023-03-29T11:07:36.064Z,66.22
2023-03-29T11:08:36.141Z,67.24
2023-03-29T11:09:36.027Z,67.96
2023-03-29T11:10:36.012Z,65.99
2023-03-29T11:11:36.006Z,66.09
2023-03-29T11:12:35.989Z,66.70
2023-03-29T11:13:35.993Z,68.61
2023-03-29T11:14:35.976Z,67.49
2023-03-29T11:15:36.009Z,66.09
2023-03-29T11:16:35.955Z,65.99
2023-03-29T11:17:35.982Z,68.20
2023-03-29T11:18:35.938Z,65.28
2023-03-29T11:19:35.921Z,66.39
2023-03-29T11:20:35.902Z,67.11
2023-03-29T11:21:35.909Z,67.49
2023-03-29T11:22:35.895Z,67.59
2023-03-29T11:23:35.916Z,66.16
2023-03-29T11:24:35.871Z,65.62
2023-03-29T11:25:35.867Z,66.03
2023-03-29T11:26:35.846Z,67.86
2023-03-29T11:27:35.858Z,67.25
2023-03-29T11:28:35.839Z,65.25
2023-03-29T11:29:35.821Z,67.05
2023-03-29T11:30:35.800Z,66.20
2023-03-29T11:31:38.353Z,67.26
2023-03-29T11:32:35.801Z,63.97
2023-03-29T11:33:35.784Z,64.18
2023-03-29T11:34:36.793Z,63.87
2023-03-29T11:35:35.801Z,64.96
2023-03-29T11:36:35.739Z,64.35
2023-03-29T11:37:35.737Z,63.54
2023-03-29T11:38:35.735Z,63.74
2023-03-29T11:39:35.721Z,64.55
2023-03-29T11:40:35.710Z,63.74
2023-03-29T11:41:35.689Z,63.64
2023-03-29T11:42:35.687Z,65.33
2023-03-29T11:43:35.684Z,65.60
2023-03-29T11:44:35.667Z,67.53
2023-03-29T11:45:35.644Z,65.88
2023-03-29T11:46:36.776Z,63.60
2023-03-29T11:47:36.801Z,63.02
2023-03-29T11:48:36.761Z,63.43
2023-03-29T11:49:36.764Z,64.07
2023-03-29T11:50:36.925Z,64.69
2023-03-29T11:51:37.726Z,64.61
2023-03-29T11:52:36.700Z,65.63
2023-03-29T11:53:36.726Z,64.75
2023-03-29T11:54:36.698Z,65.66
2023-03-29T11:55:36.679Z,67.39
2023-03-29T11:56:36.675Z,68.01
2023-03-29T11:57:36.667Z,64.95
2023-03-29T11:58:38.855Z,65.97
2023-03-29T11:59:37.654Z,65.05
2023-03-29T12:00:36.627Z,65.86
2023-03-29T12:01:36.656Z,65.59
2023-03-29T12:02:36.747Z,66.82
2023-03-29T12:03:36.643Z,66.10
2023-03-29T12:04:37.591Z,67.60
2023-03-29T12:05:36.588Z,67.29
2023-03-29T12:06:36.565Z,67.83
2023-03-29T12:07:36.557Z,67.02
2023-03-29T12:08:36.538Z,66.71
2023-03-29T12:09:36.539Z,68.04
2023-03-29T12:10:36.545Z,68.34
2023-03-29T12:11:36.515Z,68.13
2023-03-29T12:12:36.513Z,67.52
2023-03-29T12:13:36.499Z,68.51
2023-03-29T12:14:36.506Z,67.97
2023-03-29T12:15:36.505Z,67.87
2023-03-29T12:16:36.532Z,67.36
2023-03-29T12:17:36.487Z,67.16
2023-03-29T12:18:36.469Z,66.00
2023-03-29T12:19:40.281Z,66.52
2023-03-29T12:20:38.537Z,66.72
2023-03-29T12:21:36.444Z,66.31
2023-03-29T12:22:36.416Z,65.57
2023-03-29T12:23:36.409Z,66.18
2023-03-29T12:24:36.411Z,65.41
2023-03-29T12:25:36.409Z,64.39
2023-03-29T12:26:36.373Z,65.71
2023-03-29T12:27:36.355Z,63.78
2023-03-29T12:28:36.366Z,65.64
2023-03-29T12:29:36.344Z,65.47
2023-03-29T12:30:36.337Z,65.80
2023-03-29T12:31:36.368Z,67.53
2023-03-29T12:32:36.373Z,67.80
2023-03-29T12:33:36.294Z,68.14
2023-03-29T12:34:36.316Z,67.43
2023-03-29T12:35:36.312Z,67.30
2023-03-29T12:36:36.273Z,67.10
2023-03-29T12:37:36.287Z,66.99
2023-03-29T12:38:36.255Z,67.88
2023-03-29T15:00:30.630Z,67.87
2023-03-29T15:01:29.588Z,67.43
2023-03-29T15:02:29.597Z,68.04
2023-03-29T15:03:29.579Z,67.02
2023-03-29T15:04:29.464Z,67.94
2023-03-29T15:05:29.454Z,66.75
2023-03-29T15:06:29.447Z,67.16
2023-03-29T15:07:29.452Z,67.43
2023-03-29T15:08:29.434Z,67.53
2023-03-29T15:09:29.405Z,66.82
2023-03-29T15:10:29.411Z,67.94
2023-03-29T15:11:29.389Z,67.33
2023-03-29T15:12:29.389Z,67.30
2023-03-29T15:13:29.365Z,67.80
2023-03-29T15:14:29.365Z,67.22
2023-03-29T15:15:29.374Z,68.44
2023-03-29T15:16:29.465Z,67.60
2023-03-29T15:17:36.320Z,67.22
2023-03-29T15:18:30.364Z,67.53
2023-03-29T15:19:29.305Z,66.99
2023-03-29T15:20:29.297Z,67.13
2023-03-29T15:21:29.278Z,67.19
2023-03-29T15:22:29.282Z,67.91
2023-03-29T15:23:29.257Z,67.91
2023-03-29T15:24:29.249Z,68.32
2023-03-29T15:25:29.245Z,67.10
2023-03-29T15:26:29.230Z,67.60
2023-03-29T15:27:29.889Z,67.30
2023-03-29T15:28:29.288Z,67.91
2023-03-29T15:29:29.201Z,67.40
2023-03-29T15:30:29.204Z,67.77
2023-03-29T15:31:29.240Z,68.08
2023-03-29T15:32:29.207Z,67.71
2023-03-29T15:33:29.241Z,67.10
2023-03-29T15:34:29.146Z,68.41
2023-03-29T15:35:29.138Z,67.67
2023-03-29T15:36:29.127Z,67.60
2023-03-29T15:37:29.123Z,67.91
2023-03-29T15:38:40.462Z,68.52
2023-03-29T15:39:30.097Z,67.71
2023-03-29T15:40:29.118Z,67.43
2023-03-29T15:41:29.075Z,68.04
2023-03-29T15:42:29.078Z,68.35
2023-03-29T15:43:29.056Z,68.11
2023-03-29T15:44:29.057Z,68.11
2023-03-29T15:45:29.026Z,68.32
2023-03-29T15:46:29.050Z,68.35
2023-03-29T15:47:29.064Z,69.16
2023-03-29T15:48:29.003Z,68.14
2023-03-29T15:49:28.991Z,68.52
2023-03-29T15:50:28.988Z,68.04
2023-03-29T15:51:29.011Z,67.83
2023-03-29T15:52:28.986Z,68.96